createdAt,value
2022-09-10T00:00:25.504Z,3.70
2022-09-10T00:01:25.560Z,3.80
2022-09-10T00:02:25.551Z,4.20
2022-09-10T00:03:25.477Z,3.60
2022-09-10T00:04:25.461Z,3.60
2022-09-10T00:05:25.445Z,3.60
2022-09-10T00:06:25.427Z,3.20
2022-09-10T00:07:25.422Z,3.50
2022-09-10T00:08:25.406Z,3.40
2022-09-10T00:09:25.400Z,3.50
2022-09-10T00:10:25.473Z,3.50
2022-09-10T00:11:25.397Z,3.10
2022-09-10T00:12:25.368Z,3.10
2022-09-10T00:13:25.363Z,3.20
2022-09-10T00:14:25.371Z,3.20
2022-09-10T00:15:25.338Z,2.90
2022-09-10T00:16:25.400Z,2.80
2022-09-10T00:17:25.309Z,3.00
2022-09-10T00:18:25.292Z,3.00
2022-09-10T00:19:25.326Z,3.00
2022-09-10T00:20:25.302Z,3.10
2022-09-10T00:21:25.277Z,2.80
2022-09-10T00:22:25.296Z,2.70
2022-09-10T00:23:25.247Z,2.60
2022-09-10T00:24:25.268Z,2.60
2022-09-10T00:25:25.214Z,2.70
2022-09-10T00:26:25.212Z,2.40
2022-09-10T00:27:25.199Z,2.70
2022-09-10T00:28:25.196Z,2.50
2022-09-10T00:29:25.175Z,2.40
2022-09-10T00:30:25.170Z,2.30
2022-09-10T00:31:25.221Z,2.30
2022-09-10T00:32:25.147Z,2.20
2022-09-10T00:33:25.154Z,2.10
2022-09-10T00:34:25.123Z,2.40
2022-09-10T00:35:25.106Z,2.40
2022-09-10T00:36:25.106Z,2.30
2022-09-10T00:37:25.092Z,2.30
2022-09-10T00:38:25.067Z,2.00
2022-09-10T00:39:25.072Z,2.20
2022-09-10T00:40:25.046Z,2.10
2022-09-10T00:41:25.043Z,2.10
2022-09-10T00:42:25.025Z,2.20
2022-09-10T00:43:25.019Z,2.30
2022-09-10T00:44:25.039Z,2.50
2022-09-10T00:45:25.064Z,2.60
2022-09-10T00:46:24.997Z,2.50
2022-09-10T00:47:25.001Z,2.30
2022-09-10T00:48:24.964Z,2.00
2022-09-10T00:49:24.971Z,2.40
2022-09-10T00:50:24.937Z,2.40
2022-09-10T00:51:24.976Z,1.90
2022-09-10T00:52:24.930Z,2.00
2022-09-10T00:53:24.902Z,2.30
2022-09-10T00:54:24.903Z,2.00
2022-09-10T00:55:24.910Z,2.10
2022-09-10T00:56:24.882Z,2.20
2022-09-10T00:57:24.864Z,1.60
2022-09-10T00:58:24.849Z,1.50
2022-09-10T00:59:24.835Z,1.70
2022-09-10T01:00:24.834Z,1.50
2022-09-10T01:01:24.856Z,1.40
2022-09-10T01:02:24.811Z,1.40
2022-09-10T01:03:25.687Z,1.60
2022-09-10T01:04:24.810Z,1.50
2022-09-10T01:05:24.825Z,1.50
2022-09-10T01:06:24.770Z,1.60
2022-09-10T01:07:24.748Z,1.60
2022-09-10T01:08:24.756Z,1.50
2022-09-10T01:09:24.726Z,1.40
2022-09-10T01:10:24.709Z,1.60
2022-09-10T01:11:24.720Z,1.50
2022-09-10T01:12:24.710Z,1.80
2022-09-10T01:13:24.692Z,1.50
2022-09-10T01:14:24.682Z,1.20
2022-09-10T01:15:24.840Z,1.50
2022-09-10T01:16:24.724Z,1.40
2022-09-10T01:17:24.642Z,1.50
2022-09-10T01:18:24.621Z,1.50
2022-09-10T01:19:24.626Z,1.50
2022-09-10T01:20:24.613Z,1.40
2022-09-10T01:21:24.620Z,1.60
2022-09-10T01:22:24.584Z,1.50
2022-09-10T01:23:24.591Z,1.30
2022-09-10T01:24:24.570Z,1.50
2022-09-10T01:25:24.597Z,1.40
2022-09-10T01:26:24.531Z,1.40
2022-09-10T01:27:24.522Z,1.50
2022-09-10T01:28:24.529Z,1.50
2022-09-10T01:29:24.531Z,1.40
2022-09-10T01:30:24.489Z,1.60
2022-09-10T01:31:24.551Z,1.60
2022-09-10T01:32:24.495Z,1.40
2022-09-10T01:33:24.497Z,1.40
2022-09-10T01:34:24.452Z,1.50
2022-09-10T01:35:24.438Z,1.30
2022-09-10T01:36:24.431Z,1.70
2022-09-10T01:37:24.416Z,1.60
2022-09-10T01:38:24.695Z,1.60
2022-09-10T01:39:24.401Z,1.30
2022-09-10T01:40:24.412Z,1.60
2022-09-10T01:41:24.409Z,1.30
2022-09-10T01:42:24.356Z,1.50
2022-09-10T01:43:24.362Z,1.50
2022-09-10T01:44:24.376Z,1.40
2022-09-10T01:45:24.428Z,1.40
2022-09-10T01:46:24.331Z,1.50
2022-09-10T01:47:24.301Z,1.50
2022-09-10T01:48:24.309Z,1.50
2022-09-10T01:49:24.307Z,1.60
2022-09-10T01:50:24.270Z,1.50
2022-09-10T01:51:24.273Z,1.60
2022-09-10T01:52:24.275Z,1.50
2022-09-10T01:53:24.252Z,1.50
2022-09-10T01:54:24.231Z,1.60
2022-09-10T01:55:24.237Z,1.70
2022-09-10T01:56:24.254Z,1.30
2022-09-10T01:57:24.213Z,1.50
2022-09-10T01:58:24.178Z,1.60
2022-09-10T01:59:24.186Z,1.50
2022-09-10T02:00:24.171Z,1.50
2022-09-10T02:01:24.287Z,1.40
2022-09-10T02:02:24.176Z,1.60
2022-09-10T02:03:24.143Z,1.50
2022-09-10T02:04:24.110Z,1.50
2022-09-10T02:05:24.115Z,1.60
2022-09-10T02:06:24.119Z,1.60
2022-09-10T02:07:24.103Z,1.30
2022-09-10T02:08:24.083Z,1.40
2022-09-10T02:09:24.058Z,1.50
2022-09-10T02:10:24.054Z,1.50
2022-09-10T02:11:24.043Z,1.40
2022-09-10T02:12:24.071Z,1.40
2022-09-10T02:13:24.017Z,1.60
2022-09-10T02:14:24.012Z,1.40
2022-09-10T02:15:24.017Z,1.40
2022-09-10T02:16:24.037Z,1.30
2022-09-10T02:17:23.994Z,1.40
2022-09-10T02:18:23.989Z,1.50
2022-09-10T02:19:23.955Z,1.40
2022-09-10T02:20:23.952Z,1.70
2022-09-10T02:21:23.963Z,1.30
2022-09-10T02:22:23.914Z,1.30
2022-09-10T02:23:23.920Z,1.20
2022-09-10T02:24:23.887Z,1.50
2022-09-10T02:25:23.894Z,1.50
2022-09-10T02:26:23.868Z,1.30
2022-09-10T02:27:23.862Z,1.50
2022-09-10T02:28:23.880Z,1.40
2022-09-10T02:29:23.854Z,1.40
2022-09-10T02:30:23.827Z,1.30
2022-09-10T02:31:24.012Z,1.50
2022-09-10T02:32:23.798Z,1.50
2022-09-10T02:33:23.794Z,1.50
2022-09-10T02:34:23.807Z,1.50
2022-09-10T02:35:23.796Z,1.40
2022-09-10T02:36:23.766Z,1.40
2022-09-10T02:37:23.765Z,1.30
2022-09-10T02:38:23.767Z,1.40
2022-09-10T02:39:23.739Z,1.50
2022-09-10T02:40:23.728Z,1.50
2022-09-10T02:41:23.699Z,1.70
2022-09-10T02:42:23.694Z,1.40
2022-09-10T02:43:23.711Z,1.50
2022-09-10T02:44:23.683Z,1.50
2022-09-10T02:45:23.755Z,1.60
2022-09-10T02:46:23.667Z,1.80
2022-09-10T02:47:23.673Z,1.70
2022-09-10T02:48:23.633Z,1.50
2022-09-10T02:49:23.650Z,1.40
2022-09-10T02:50:23.607Z,1.90
2022-09-10T02:51:23.614Z,1.90
2022-09-10T02:52:23.625Z,1.40
2022-09-10T02:53:23.582Z,1.50
2022-09-10T02:54:23.576Z,1.50
2022-09-10T02:55:23.545Z,1.40
2022-09-10T02:56:23.548Z,1.50
2022-09-10T02:57:23.596Z,1.40
2022-09-10T02:58:23.566Z,1.40
2022-09-10T02:59:23.517Z,1.40
2022-09-10T03:00:23.541Z,1.30
2022-09-10T03:01:23.536Z,1.60
2022-09-10T03:02:23.556Z,1.40
2022-09-10T03:03:23.476Z,1.60
2022-09-10T03:04:23.447Z,1.40
2022-09-10T03:05:23.587Z,1.50
2022-09-10T03:06:23.429Z,1.60
2022-09-10T03:07:23.416Z,1.50
2022-09-10T03:08:23.428Z,1.60
2022-09-10T03:09:23.415Z,1.50
2022-09-10T03:10:23.386Z,1.50
2022-09-10T03:11:23.384Z,1.40
2022-09-10T03:12:23.363Z,1.50
2022-09-10T03:13:23.351Z,1.60
2022-09-10T03:14:23.366Z,1.70
2022-09-10T03:15:23.323Z,1.60
2022-09-10T03:16:23.385Z,1.40
2022-09-10T03:17:23.317Z,1.60
2022-09-10T03:18:23.294Z,1.50
2022-09-10T03:19:23.304Z,1.70
2022-09-10T03:20:23.292Z,1.90
2022-09-10T03:21:23.257Z,1.60
2022-09-10T03:22:23.251Z,1.90
2022-09-10T03:23:23.236Z,1.50
2022-09-10T03:24:23.226Z,1.40
2022-09-10T03:25:23.232Z,1.70
2022-09-10T03:26:23.233Z,1.60
2022-09-10T03:27:23.197Z,1.50
2022-09-10T03:28:23.193Z,1.70
2022-09-10T03:29:23.168Z,1.70
2022-09-10T03:30:23.174Z,1.60
2022-09-10T03:31:23.197Z,1.60
2022-09-10T03:32:23.187Z,1.80
2022-09-10T03:33:23.138Z,1.50
2022-09-10T03:34:23.133Z,1.70
2022-09-10T03:35:23.100Z,1.70
2022-09-10T03:36:23.098Z,1.80
2022-09-10T03:37:23.108Z,1.70
2022-09-10T03:38:23.074Z,1.50
2022-09-10T03:39:23.074Z,1.60
2022-09-10T03:40:23.046Z,1.50
2022-09-10T03:41:23.081Z,1.90
2022-09-10T03:42:23.035Z,1.70
2022-09-10T03:43:23.030Z,1.80
2022-09-10T03:44:23.014Z,1.80
2022-09-10T03:45:23.049Z,1.80
2022-09-10T03:46:23.007Z,1.90
2022-09-10T03:47:22.966Z,1.60
2022-09-10T03:48:22.992Z,1.60
2022-09-10T03:49:22.983Z,1.60
2022-09-10T03:50:22.951Z,1.80
2022-09-10T03:51:22.963Z,2.00
2022-09-10T03:52:22.913Z,1.70
2022-09-10T03:53:22.929Z,1.70
2022-09-10T03:54:22.927Z,1.70
2022-09-10T03:55:22.878Z,1.90
2022-09-10T03:56:22.872Z,1.50
2022-09-10T03:57:22.898Z,1.80
2022-09-10T03:58:22.849Z,1.70
2022-09-10T03:59:22.843Z,1.50
2022-09-10T04:00:22.902Z,1.70
2022-09-10T04:01:22.855Z,1.60
2022-09-10T04:02:22.908Z,1.80
2022-09-10T04:03:22.791Z,1.80
2022-09-10T04:04:22.811Z,1.80
2022-09-10T04:05:22.775Z,1.80
2022-09-10T04:06:22.756Z,1.70
2022-09-10T04:07:22.756Z,1.80
2022-09-10T04:08:22.753Z,2.00
2022-09-10T04:09:22.759Z,2.00
2022-09-10T04:10:22.721Z,2.00
2022-09-10T04:11:22.709Z,1.90
2022-09-10T04:12:22.689Z,1.90
2022-09-10T04:13:22.683Z,1.90
2022-09-10T04:14:22.695Z,1.80
2022-09-10T04:15:22.655Z,1.90
2022-09-10T04:16:22.683Z,2.00
2022-09-10T04:17:22.654Z,2.20
2022-09-10T04:18:22.647Z,2.00
2022-09-10T04:19:22.634Z,2.00
2022-09-10T04:20:22.635Z,1.80
2022-09-10T04:21:22.588Z,1.80
2022-09-10T04:22:22.593Z,2.10
2022-09-10T04:23:22.571Z,2.10
2022-09-10T04:24:22.566Z,1.90
2022-09-10T04:25:22.575Z,2.40
2022-09-10T04:26:22.536Z,1.60
2022-09-10T04:27:22.539Z,2.00
2022-09-10T04:28:22.585Z,2.20
2022-09-10T04:29:22.504Z,2.70
2022-09-10T04:30:22.504Z,2.00
2022-09-10T04:31:22.576Z,1.80
2022-09-10T04:32:22.467Z,1.80
2022-09-10T04:33:22.479Z,2.00
2022-09-10T04:34:22.473Z,2.10
2022-09-10T04:35:22.465Z,2.10
2022-09-10T04:36:22.462Z,2.10
2022-09-10T04:37:22.432Z,2.00
2022-09-10T04:38:22.416Z,1.90
2022-09-10T04:39:22.436Z,1.70
2022-09-10T04:40:22.415Z,2.00
2022-09-10T04:41:22.385Z,2.10
2022-09-10T04:42:22.370Z,1.90
2022-09-10T04:43:22.345Z,1.60
2022-09-10T04:44:22.335Z,1.70
2022-09-10T04:45:22.353Z,2.30
2022-09-10T04:46:22.310Z,1.80
2022-09-10T04:47:22.320Z,1.70
2022-09-10T04:48:22.295Z,1.90
2022-09-10T04:49:22.280Z,1.70
2022-09-10T04:50:22.276Z,1.70
2022-09-10T04:51:22.277Z,2.00
2022-09-10T04:52:22.315Z,1.80
2022-09-10T04:53:22.244Z,2.10
2022-09-10T04:54:22.228Z,1.70
2022-09-10T04:55:22.211Z,1.90
2022-09-10T04:56:22.213Z,2.30
2022-09-10T04:57:22.211Z,2.20
2022-09-10T04:58:22.187Z,2.00
2022-09-10T04:59:22.182Z,2.30
2022-09-10T05:00:22.155Z,2.00
2022-09-10T05:01:22.269Z,2.60
2022-09-10T05:02:22.224Z,2.10
2022-09-10T05:03:22.161Z,2.10
2022-09-10T05:04:22.126Z,2.40
2022-09-10T05:05:22.099Z,2.50
2022-09-10T05:06:22.127Z,2.00
2022-09-10T05:07:22.090Z,2.30
2022-09-10T05:08:22.110Z,2.00
2022-09-10T05:09:22.058Z,2.00
2022-09-10T05:10:22.169Z,2.20
2022-09-10T05:11:22.031Z,2.10
2022-09-10T05:12:22.024Z,1.90
2022-09-10T05:13:22.028Z,1.90
2022-09-10T05:14:22.027Z,2.10
2022-09-10T05:15:21.997Z,1.90
2022-09-10T05:16:22.038Z,2.10
2022-09-10T05:17:21.965Z,2.10
2022-09-10T05:18:21.964Z,2.00
2022-09-10T05:19:21.991Z,2.20
2022-09-10T05:20:21.932Z,2.00
2022-09-10T05:21:21.936Z,2.00
2022-09-10T05:22:21.927Z,2.00
2022-09-10T05:23:21.898Z,2.20
2022-09-10T05:24:21.916Z,2.10
2022-09-10T05:25:21.910Z,1.90
2022-09-10T05:26:21.900Z,2.00
2022-09-10T05:27:21.863Z,1.90
2022-09-10T05:28:21.844Z,2.10
2022-09-10T05:29:21.831Z,2.10
2022-09-10T05:30:21.835Z,2.00
2022-09-10T05:31:21.894Z,2.00
2022-09-10T05:32:21.808Z,2.00
2022-09-10T05:33:21.814Z,2.00
2022-09-10T05:34:21.778Z,2.20
2022-09-10T05:35:21.773Z,2.10
2022-09-10T05:36:21.765Z,2.10
2022-09-10T05:37:21.766Z,2.00
2022-09-10T05:38:21.749Z,2.20
2022-09-10T05:39:21.740Z,2.10
2022-09-10T05:40:21.729Z,1.90
2022-09-10T05:41:21.711Z,2.00
2022-09-10T05:42:21.719Z,2.00
2022-09-10T05:43:21.689Z,2.10
2022-09-10T05:44:21.697Z,2.20
2022-09-10T05:45:21.751Z,1.90
2022-09-10T05:46:21.645Z,2.10
2022-09-10T05:47:21.634Z,2.00
2022-09-10T05:48:21.652Z,2.10
2022-09-10T05:49:21.628Z,2.30
2022-09-10T05:50:21.626Z,2.10
2022-09-10T05:51:21.590Z,2.20
2022-09-10T05:52:21.579Z,2.70
2022-09-10T05:53:21.568Z,2.10
2022-09-10T05:54:21.579Z,2.00
2022-09-10T05:55:21.557Z,2.10
2022-09-10T05:56:21.668Z,2.00
2022-09-10T05:57:21.522Z,2.00
2022-09-10T05:58:21.513Z,2.40
2022-09-10T05:59:21.513Z,2.30
2022-09-10T06:00:21.527Z,1.70
2022-09-10T06:01:21.500Z,2.30
2022-09-10T06:02:24.134Z,2.10
2022-09-10T06:03:21.481Z,1.90
2022-09-10T06:04:21.467Z,1.70
2022-09-10T06:05:21.450Z,1.90
2022-09-10T06:06:21.431Z,1.90
2022-09-10T06:07:21.434Z,1.80
2022-09-10T06:08:21.408Z,1.70
2022-09-10T06:09:21.389Z,1.30
2022-09-10T06:10:21.392Z,1.70
2022-09-10T06:11:21.396Z,1.80
2022-09-10T06:12:21.384Z,1.90
2022-09-10T06:13:21.376Z,1.40
2022-09-10T06:14:21.336Z,1.50
2022-09-10T06:15:21.341Z,1.40
2022-09-10T06:16:21.390Z,1.40
2022-09-10T06:17:21.301Z,1.40
2022-09-10T06:18:21.310Z,1.30
2022-09-10T06:19:21.276Z,1.60
2022-09-10T06:20:21.267Z,1.40
2022-09-10T06:21:29.790Z,1.20
2022-09-10T06:22:21.264Z,1.40
2022-09-10T06:23:21.267Z,1.40
2022-09-10T06:24:21.234Z,1.50
2022-09-10T06:25:21.210Z,1.50
2022-09-10T06:26:21.208Z,1.70
2022-09-10T06:27:21.201Z,1.60
2022-09-10T06:28:21.243Z,1.40
2022-09-10T06:29:21.197Z,1.80
2022-09-10T06:30:21.158Z,1.50
2022-09-10T06:31:21.143Z,1.50
2022-09-10T06:32:21.148Z,1.50
2022-09-10T06:33:21.131Z,1.70
2022-09-10T06:34:21.142Z,1.50
2022-09-10T06:35:21.100Z,1.50
2022-09-10T06:36:21.090Z,1.60
2022-09-10T06:37:21.077Z,1.30
2022-09-10T06:38:21.084Z,1.60
2022-09-10T06:39:21.088Z,1.50
2022-09-10T06:40:21.070Z,1.60
2022-09-10T06:41:21.044Z,1.60
2022-09-10T06:42:21.023Z,1.80
2022-09-10T06:43:21.032Z,1.40
2022-09-10T06:44:21.020Z,1.70
2022-09-10T06:45:21.034Z,1.60
2022-09-10T06:48:39.171Z,2.10
2022-09-10T06:49:21.961Z,2.10
2022-09-10T06:50:20.958Z,1.70
2022-09-10T06:51:20.931Z,1.90
2022-09-10T06:52:20.945Z,1.80
2022-09-10T06:53:20.946Z,1.40
2022-09-10T06:54:20.890Z,2.00
2022-09-10T06:55:20.905Z,1.70
2022-09-10T06:56:20.875Z,1.50
2022-09-10T06:57:20.871Z,1.60
2022-09-10T06:58:20.855Z,1.50
2022-09-10T06:59:20.850Z,1.60
2022-09-10T07:00:20.858Z,1.30
2022-09-10T07:01:20.838Z,1.70
2022-09-10T07:02:20.866Z,1.70
2022-09-10T07:03:20.811Z,1.60
2022-09-10T07:04:20.780Z,1.60
2022-09-10T07:05:20.827Z,1.70
2022-09-10T07:06:20.763Z,1.40
2022-09-10T07:07:20.746Z,1.60
2022-09-10T07:08:20.741Z,1.60
2022-09-10T07:09:20.749Z,1.70
2022-09-10T07:10:20.727Z,1.50
2022-09-10T07:11:20.701Z,1.70
2022-09-10T07:12:20.702Z,1.60
2022-09-10T07:13:20.683Z,1.60
2022-09-10T07:14:20.679Z,1.80
2022-09-10T07:15:20.684Z,1.50
2022-09-10T07:16:20.658Z,1.50
2022-09-10T07:17:20.701Z,1.90
2022-09-10T07:18:20.622Z,2.20
2022-09-10T07:19:20.630Z,2.40
2022-09-10T07:20:20.619Z,2.30
2022-09-10T07:21:20.627Z,2.30
2022-09-10T07:22:20.575Z,2.40
2022-09-10T07:23:20.602Z,2.50
2022-09-10T07:24:20.558Z,2.00
2022-09-10T07:25:20.565Z,1.80
2022-09-10T07:26:20.555Z,1.80
2022-09-10T07:27:20.519Z,1.60
2022-09-10T07:28:20.527Z,1.60
2022-09-10T07:29:20.525Z,1.80
2022-09-10T07:30:20.494Z,1.70
2022-09-10T07:31:20.585Z,1.90
2022-09-10T07:32:20.494Z,1.90
2022-09-10T07:33:20.451Z,2.10
2022-09-10T07:34:20.446Z,2.00
2022-09-10T07:35:20.457Z,2.90
2022-09-10T07:36:20.434Z,3.40
2022-09-10T07:37:20.439Z,2.30
2022-09-10T07:38:20.401Z,2.40
2022-09-10T07:39:24.907Z,2.00
2022-09-10T07:40:21.434Z,2.30
2022-09-10T07:41:20.387Z,2.80
2022-09-10T07:42:20.361Z,2.60
2022-09-10T07:43:20.374Z,2.20
2022-09-10T07:44:20.328Z,2.20
2022-09-10T07:45:20.381Z,2.50
2022-09-10T07:46:20.430Z,2.20
2022-09-10T07:47:20.305Z,1.70
2022-09-10T07:48:20.320Z,2.10
2022-09-10T07:49:20.275Z,2.10
2022-09-10T07:50:20.280Z,1.70
2022-09-10T07:51:20.250Z,1.60
2022-09-10T07:52:20.243Z,1.70
2022-09-10T07:53:20.255Z,1.40
2022-09-10T07:54:20.239Z,1.20
2022-09-10T07:55:20.244Z,1.40
2022-09-10T07:56:20.190Z,0.90
2022-09-10T07:57:20.189Z,0.90
2022-09-10T07:58:20.178Z,0.90
2022-09-10T07:59:20.189Z,1.00
2022-09-10T08:00:20.235Z,1.20
2022-09-10T08:01:20.216Z,0.90
2022-09-10T08:02:20.170Z,1.10
2022-09-10T08:03:20.131Z,1.00
2022-09-10T08:04:20.129Z,1.00
2022-09-10T08:05:20.129Z,1.00
2022-09-10T08:06:20.082Z,1.00
2022-09-10T08:07:20.071Z,1.20
2022-09-10T08:08:20.057Z,1.00
2022-09-10T08:09:20.052Z,0.90
2022-09-10T08:10:20.099Z,0.90
2022-09-10T08:11:20.051Z,0.80
2022-09-10T08:12:20.022Z,0.80
2022-09-10T08:13:20.000Z,0.90
2022-09-10T08:14:19.997Z,0.90
2022-09-10T08:15:19.992Z,0.70
2022-09-10T08:16:19.989Z,0.80
2022-09-10T08:17:19.985Z,0.90
2022-09-10T08:18:19.943Z,0.80
2022-09-10T08:19:19.938Z,0.80
2022-09-10T08:20:19.956Z,0.70
2022-09-10T08:21:19.948Z,0.80
2022-09-10T08:22:19.915Z,0.70
2022-09-10T08:23:19.921Z,0.70
2022-09-10T08:24:19.891Z,0.80
2022-09-10T08:25:19.870Z,0.70
2022-09-10T08:26:19.865Z,0.90
2022-09-10T08:27:19.869Z,0.90
2022-09-10T08:28:24.818Z,1.00
2022-09-10T08:29:20.819Z,0.70
2022-09-10T08:30:19.805Z,0.90
2022-09-10T08:31:19.888Z,0.60
2022-09-10T08:32:19.793Z,0.80
2022-09-10T08:33:19.793Z,0.60
2022-09-10T08:34:19.795Z,0.70
2022-09-10T08:35:19.751Z,0.80
2022-09-10T08:36:19.756Z,0.80
2022-09-10T08:37:19.755Z,1.00
2022-09-10T08:38:19.742Z,0.90
2022-09-10T08:39:19.736Z,0.70
2022-09-10T08:40:19.695Z,0.90
2022-09-10T08:41:19.684Z,0.90
2022-09-10T08:42:19.681Z,0.70
2022-09-10T08:43:19.661Z,0.90
2022-09-10T08:44:19.679Z,0.90
2022-09-10T08:45:19.662Z,0.80
2022-09-10T08:46:19.626Z,0.90
2022-09-10T08:47:19.679Z,0.70
2022-09-10T08:48:19.619Z,0.70
2022-09-10T08:49:19.637Z,0.80
2022-09-10T08:50:19.615Z,0.90
2022-09-10T08:51:19.602Z,0.70
2022-09-10T08:52:19.585Z,0.90
2022-09-10T08:53:19.548Z,0.70
2022-09-10T08:54:19.556Z,0.80
2022-09-10T08:55:19.566Z,0.80
2022-09-10T08:56:19.549Z,0.70
2022-09-10T08:57:19.506Z,0.80
2022-09-10T08:58:19.492Z,0.70
2022-09-10T08:59:19.533Z,0.70
2022-09-10T09:00:19.478Z,0.80
2022-09-10T09:01:19.511Z,0.70
2022-09-10T09:02:44.661Z,0.80
2022-09-10T09:03:20.494Z,0.80
2022-09-10T09:04:19.441Z,0.70
2022-09-10T09:05:19.456Z,0.80
2022-09-10T09:06:19.416Z,0.70
2022-09-10T09:07:19.408Z,0.70
2022-09-10T09:08:19.411Z,0.90
2022-09-10T09:09:19.387Z,0.80
2022-09-10T09:10:19.363Z,0.70
2022-09-10T09:11:19.378Z,0.90
2022-09-10T09:12:19.348Z,0.80
2022-09-10T09:13:19.348Z,0.80
2022-09-10T09:14:19.360Z,0.90
2022-09-10T09:15:19.301Z,0.90
2022-09-10T09:16:19.303Z,1.20
2022-09-10T09:17:19.318Z,1.20
2022-09-10T09:18:19.295Z,1.20
2022-09-10T09:19:19.295Z,1.20
2022-09-10T09:20:19.244Z,1.00
2022-09-10T09:21:19.235Z,0.90
2022-09-10T09:22:19.253Z,0.90
2022-09-10T09:23:19.220Z,0.90
2022-09-10T09:24:19.242Z,0.80
2022-09-10T09:25:19.230Z,0.80
2022-09-10T09:26:19.181Z,0.80
2022-09-10T09:27:19.172Z,0.90
2022-09-10T09:28:19.191Z,0.80
2022-09-10T09:29:19.163Z,0.60
2022-09-10T09:30:19.168Z,0.60
2022-09-10T09:31:19.189Z,0.70
2022-09-10T09:32:19.109Z,0.60
2022-09-10T09:33:19.134Z,0.70
2022-09-10T09:34:19.088Z,0.80
2022-09-10T09:35:19.099Z,0.70
2022-09-10T09:36:19.091Z,0.90
2022-09-10T09:37:19.057Z,0.70
2022-09-10T09:38:19.049Z,0.70
2022-09-10T09:39:20.075Z,0.80
2022-09-10T09:40:19.080Z,0.80
2022-09-10T09:41:19.044Z,0.80
2022-09-10T09:42:19.032Z,0.70
2022-09-10T09:43:18.991Z,0.80
2022-09-10T09:44:18.980Z,0.70
2022-09-10T09:45:18.969Z,0.70
2022-09-10T09:46:19.004Z,0.90
2022-09-10T09:47:18.976Z,1.60
2022-09-10T09:48:18.976Z,0.90
2022-09-10T09:49:18.920Z,1.00
2022-09-10T09:50:18.988Z,0.80
2022-09-10T09:51:18.899Z,0.70
2022-09-10T09:52:18.905Z,0.90
2022-09-10T09:53:18.907Z,1.10
2022-09-10T09:54:56.714Z,0.80
2022-09-10T09:55:19.854Z,0.70
2022-09-10T09:56:18.877Z,0.90
2022-09-10T09:57:18.876Z,0.90
2022-09-10T09:58:18.847Z,0.80
2022-09-10T09:59:18.975Z,0.70
2022-09-10T10:00:18.810Z,0.80
2022-09-10T10:01:18.826Z,0.80
2022-09-10T10:02:18.801Z,0.70
2022-09-10T10:03:18.785Z,0.70
2022-09-10T10:04:18.790Z,0.80
2022-09-10T10:05:18.739Z,0.70
2022-09-10T10:06:18.750Z,1.90
2022-09-10T10:07:18.735Z,2.20
2022-09-10T10:08:18.711Z,2.50
2022-09-10T10:09:18.721Z,2.00
2022-09-10T10:10:18.724Z,1.20
2022-09-10T10:11:18.671Z,0.80
2022-09-10T10:12:18.701Z,0.80
2022-09-10T10:13:18.666Z,0.80
2022-09-10T10:14:18.662Z,0.90
2022-09-10T10:15:18.657Z,0.70
2022-09-10T10:16:18.613Z,1.00
2022-09-10T10:17:18.619Z,0.60
2022-09-10T10:18:18.596Z,0.60
2022-09-10T10:19:18.591Z,0.80
2022-09-10T10:20:18.589Z,0.60
2022-09-10T10:21:18.609Z,0.70
2022-09-10T10:22:19.323Z,0.60
2022-09-10T10:23:18.535Z,0.50
2022-09-10T10:24:18.539Z,0.50
2022-09-10T10:25:18.554Z,0.60
2022-09-10T10:26:18.514Z,0.60
2022-09-10T10:27:18.531Z,0.60
2022-09-10T10:28:18.510Z,0.60
2022-09-10T10:29:18.496Z,0.70
2022-09-10T10:30:18.481Z,0.70
2022-09-10T10:31:18.557Z,0.60
2022-09-10T10:32:18.455Z,0.60
2022-09-10T10:33:18.427Z,0.60
2022-09-10T10:34:18.432Z,0.40
2022-09-10T10:35:18.415Z,0.60
2022-09-10T10:36:18.398Z,0.50
2022-09-10T10:37:18.397Z,0.50
2022-09-10T10:38:18.394Z,0.50
2022-09-10T10:39:18.356Z,0.60
2022-09-10T10:40:18.375Z,0.60
2022-09-10T10:41:18.361Z,0.50
2022-09-10T10:42:18.332Z,0.50
2022-09-10T10:43:18.341Z,0.50
2022-09-10T10:44:18.363Z,0.60
2022-09-10T10:45:18.290Z,0.50
2022-09-10T10:46:18.399Z,0.60
2022-09-10T10:47:18.270Z,0.50
2022-09-10T10:48:18.270Z,0.50
2022-09-10T10:49:18.277Z,0.60
2022-09-10T10:50:18.235Z,0.50
2022-09-10T10:51:18.278Z,0.50
2022-09-10T10:52:18.225Z,0.60
2022-09-10T10:53:18.202Z,0.60
2022-09-10T10:54:18.207Z,0.50
2022-09-10T10:55:18.204Z,0.40
2022-09-10T10:56:18.165Z,0.60
2022-09-10T10:57:18.161Z,0.40
2022-09-10T10:58:18.151Z,0.50
2022-09-10T10:59:18.139Z,0.40
2022-09-10T11:00:18.166Z,0.50
2022-09-10T11:01:18.174Z,0.50
2022-09-10T11:02:18.176Z,0.50
2022-09-10T11:03:18.089Z,0.50
2022-09-10T11:04:18.105Z,0.50
2022-09-10T11:05:18.097Z,0.40
2022-09-10T11:06:18.087Z,0.50
2022-09-10T11:07:18.046Z,0.50
2022-09-10T11:08:18.033Z,0.50
2022-09-10T11:09:18.030Z,0.50
2022-09-10T11:10:18.042Z,0.50
2022-09-10T11:11:18.027Z,0.50
2022-09-10T11:12:18.026Z,0.40
2022-09-10T11:13:17.978Z,0.40
2022-09-10T11:14:17.986Z,0.40
2022-09-10T11:15:17.968Z,0.40
2022-09-10T11:16:18.004Z,0.50
2022-09-10T11:17:17.937Z,1.00
2022-09-10T11:18:17.957Z,0.50
2022-09-10T11:19:17.911Z,0.60
2022-09-10T11:20:28.343Z,0.50
2022-09-10T11:21:18.911Z,0.50
2022-09-10T11:22:17.894Z,0.50
2022-09-10T11:23:17.902Z,0.50
2022-09-10T11:24:17.942Z,0.50
2022-09-10T11:25:17.843Z,0.40
2022-09-10T11:26:17.839Z,2.00
2022-09-10T11:27:17.850Z,12.30
2022-09-10T11:28:17.830Z,5.80
2022-09-10T11:29:17.842Z,3.00
2022-09-10T11:30:17.789Z,2.20
2022-09-10T11:31:17.851Z,1.60
2022-09-10T11:32:17.801Z,1.20
2022-09-10T11:33:17.793Z,0.90
2022-09-10T11:34:17.770Z,1.10
2022-09-10T11:35:17.763Z,1.20
2022-09-10T11:36:17.720Z,1.10
2022-09-10T11:37:17.711Z,0.70
2022-09-10T11:38:17.700Z,0.90
2022-09-10T11:39:17.734Z,0.90
2022-09-10T11:40:17.709Z,1.00
2022-09-10T11:41:17.662Z,1.00
2022-09-10T11:42:17.669Z,1.60
2022-09-10T11:43:17.650Z,0.80
2022-09-10T11:44:17.641Z,0.70
2022-09-10T11:45:17.640Z,0.70
2022-09-10T11:46:17.685Z,1.20
2022-09-10T11:47:17.654Z,0.60
2022-09-10T11:48:17.611Z,1.60
2022-09-10T11:49:17.589Z,4.40
2022-09-10T11:50:17.577Z,1.00
2022-09-10T11:51:17.599Z,0.40
2022-09-10T11:52:17.585Z,0.60
2022-09-10T11:53:17.593Z,0.70
2022-09-10T11:54:17.523Z,0.60
2022-09-10T11:55:17.528Z,0.70
2022-09-10T11:56:17.516Z,0.80
2022-09-10T11:57:17.518Z,0.80
2022-09-10T11:58:17.514Z,0.80
2022-09-10T11:59:17.460Z,0.60
2022-09-10T12:00:17.488Z,0.70
2022-09-10T12:01:17.463Z,0.60
2022-09-10T12:02:17.487Z,0.60
2022-09-10T12:03:17.508Z,0.70
2022-09-10T12:04:17.422Z,0.90
2022-09-10T12:05:17.409Z,0.50
2022-09-10T12:06:17.394Z,0.60
2022-09-10T12:07:17.390Z,0.70
2022-09-10T12:08:17.409Z,0.60
2022-09-10T12:09:17.394Z,0.70
2022-09-10T12:10:17.401Z,0.50
2022-09-10T12:11:17.329Z,0.50
2022-09-10T12:12:17.358Z,0.50
2022-09-10T12:13:17.326Z,0.60
2022-09-10T12:14:17.867Z,0.50
2022-09-10T12:15:17.340Z,0.70
2022-09-10T12:16:17.297Z,0.50
2022-09-10T12:17:17.272Z,0.60
2022-09-10T12:18:17.253Z,0.70
2022-09-10T12:19:17.263Z,0.60
2022-09-10T12:20:17.256Z,0.70
2022-09-10T12:21:17.262Z,0.60
2022-09-10T12:22:17.209Z,0.70
2022-09-10T12:23:17.215Z,0.60
2022-09-10T12:24:17.238Z,0.80
2022-09-10T12:25:17.200Z,0.80
2022-09-10T12:26:17.166Z,0.60
2022-09-10T12:27:17.158Z,0.70
2022-09-10T12:28:17.149Z,0.80
2022-09-10T12:29:17.157Z,0.80
2022-09-10T12:30:17.440Z,0.60
2022-09-10T12:31:17.185Z,0.60
2022-09-10T12:32:17.093Z,0.70
2022-09-10T12:33:17.078Z,0.70
2022-09-10T12:34:17.087Z,0.70
2022-09-10T12:35:17.096Z,0.50
2022-09-10T12:36:17.089Z,0.70
2022-09-10T12:37:17.106Z,0.70
2022-09-10T12:38:17.026Z,0.60
2022-09-10T12:39:17.015Z,0.70
2022-09-10T12:40:17.073Z,0.60
2022-09-10T12:41:17.027Z,0.60
2022-09-10T12:42:17.011Z,0.60
2022-09-10T12:43:17.008Z,0.80
2022-09-10T12:44:16.967Z,0.70
2022-09-10T12:45:16.963Z,0.60
2022-09-10T12:46:17.005Z,0.60
2022-09-10T12:47:16.968Z,0.90
2022-09-10T12:48:16.938Z,1.60
2022-09-10T12:49:16.902Z,1.20
2022-09-10T12:50:16.912Z,1.00
2022-09-10T12:51:16.924Z,0.70
2022-09-10T12:52:16.902Z,0.80
2022-09-10T12:53:16.884Z,0.60
2022-09-10T12:54:16.877Z,0.70
2022-09-10T12:55:16.882Z,0.80
2022-09-10T12:56:16.826Z,0.50
2022-09-10T12:57:16.828Z,0.80
2022-09-10T12:58:16.836Z,0.80
2022-09-10T12:59:16.808Z,0.70
2022-09-10T13:00:16.820Z,0.60
2022-09-10T13:01:16.907Z,0.60
2022-09-10T13:02:17.017Z,0.70
2022-09-10T13:03:16.765Z,0.70
2022-09-10T13:04:16.781Z,0.60
2022-09-10T13:05:16.760Z,0.50
2022-09-10T13:06:16.715Z,0.80
2022-09-10T13:07:16.702Z,0.60
2022-09-10T13:08:16.719Z,0.50
2022-09-10T13:09:16.688Z,0.50
2022-09-10T13:10:21.559Z,0.60
2022-09-10T13:11:17.665Z,0.50
2022-09-10T13:12:16.657Z,0.50
2022-09-10T13:13:16.634Z,0.40
2022-09-10T13:14:16.638Z,0.40
2022-09-10T13:15:16.627Z,0.50
2022-09-10T13:16:16.632Z,0.50
2022-09-10T13:17:16.630Z,0.50
2022-09-10T13:18:16.582Z,0.40
2022-09-10T13:19:16.573Z,0.40
2022-09-10T13:20:16.576Z,0.40